Time;durP1;ratioP1;P1;durP2;ratioP2;P2;SDS_P1;SDS_P2;PMS_P1;PMS_P2;Temp;Humidity;BMP_temperature;BMP_pressure;BME280_temperature;BME280_humidity;BME280_pressure;Samples;Min_cycle;Max_cycle;Signal;HPM_P1;HPM_P2
2023/04/07 00:02:06;;;;;;;39.20;30.20;;;10.40;99.90;;;;;;5044235;28;20093;-76
2023/04/07 00:04:32;;;;;;;35.22;28.48;;;10.40;99.90;;;;;;5045070;28;20044;-76
2023/04/07 00:06:57;;;;;;;33.38;26.00;;;10.40;99.90;;;;;;5031209;28;20025;-76
2023/04/07 00:09:23;;;;;;;36.78;24.00;;;10.40;99.90;;;;;;5050719;28;20036;-76
2023/04/07 00:11:48;;;;;;;29.00;21.05;;;10.30;99.90;;;;;;5048794;28;20074;-77
2023/04/07 00:14:14;;;;;;;28.10;19.00;;;10.30;99.90;;;;;;5042382;28;20029;-77
2023/04/07 00:16:40;;;;;;;31.75;20.67;;;10.30;99.90;;;;;;5034037;28;20052;-75
2023/04/07 00:19:05;;;;;;;31.08;20.75;;;10.30;99.90;;;;;;5030388;28;20034;-77
2023/04/07 00:21:31;;;;;;;26.92;19.73;;;10.30;99.90;;;;;;5030072;28;20025;-76
2023/04/07 00:23:56;;;;;;;35.50;21.60;;;10.30;99.90;;;;;;5030132;28;20049;-76
2023/04/07 00:26:22;;;;;;;27.85;20.02;;;10.30;99.90;;;;;;5043195;28;20103;-77
2023/04/07 00:28:47;;;;;;;32.17;21.60;;;10.20;99.90;;;;;;5038967;28;20048;-76
2023/04/07 00:31:13;;;;;;;30.05;21.20;;;10.30;99.90;;;;;;5037830;28;20025;-74
2023/04/07 00:33:38;;;;;;;29.35;21.42;;;10.20;99.90;;;;;;5037563;28;20025;-75
2023/04/07 00:36:05;;;;;;;29.58;21.75;;;10.20;99.90;;;;;;5051729;28;20029;-75
2023/04/07 00:38:30;;;;;;;25.40;18.60;;;10.30;99.90;;;;;;5050894;28;20100;-75
2023/04/07 00:40:58;;;;;;;31.63;19.40;;;10.30;99.90;;;;;;5051173;28;20052;-75
2023/04/07 00:43:24;;;;;;;28.05;18.50;;;10.20;99.90;;;;;;5048186;28;20009;-76
2023/04/07 00:45:50;;;;;;;25.92;19.42;;;10.20;99.90;;;;;;5050716;28;20025;-76
2023/04/07 00:48:16;;;;;;;25.35;18.48;;;10.20;99.90;;;;;;5038138;28;20437;-74
2023/04/07 00:50:41;;;;;;;32.40;18.42;;;10.20;99.90;;;;;;5050079;28;20055;-75
2023/04/07 00:53:07;;;;;;;21.98;16.90;;;10.20;99.90;;;;;;5051243;28;20025;-76
2023/04/07 00:55:33;;;;;;;25.30;17.15;;;10.20;99.90;;;;;;5050280;28;20025;-77
2023/04/07 00:57:58;;;;;;;23.90;16.45;;;10.20;99.90;;;;;;5050440;28;20474;-76
2023/04/07 01:00:26;;;;;;;21.90;15.50;;;10.20;99.90;;;;;;5048506;28;20017;-76
2023/04/07 01:03:04;;;;;;;24.33;15.30;;;10.10;99.90;;;;;;5050215;28;20124;-77
2023/04/07 01:05:45;;;;;;;18.73;14.05;;;10.10;99.90;;;;;;5049763;28;20023;-76
2023/04/07 01:08:34;;;;;;;17.70;13.75;;;10.10;99.90;;;;;;5050606;28;20025;-78
2023/04/07 01:11:20;;;;;;;19.70;14.45;;;10.10;99.90;;;;;;5026302;28;20025;-75
2023/04/07 01:13:49;;;;;;;19.80;14.07;;;10.10;99.90;;;;;;5041772;28;20405;-76
2023/04/07 01:16:21;;;;;;;21.20;13.20;;;10.10;99.90;;;;;;5041341;28;20029;-75
2023/04/07 01:18:52;;;;;;;17.58;13.63;;;10.10;99.90;;;;;;5041293;28;20033;-76
2023/04/07 01:21:19;;;;;;;20.75;14.27;;;10.10;99.90;;;;;;5048979;28;20029;-75
2023/04/07 01:23:50;;;;;;;17.15;13.77;;;10.10;99.90;;;;;;5049631;28;20024;-76
2023/04/07 01:26:23;;;;;;;20.30;13.35;;;10.10;99.90;;;;;;5050506;28;20382;-75
2023/04/07 01:28:58;;;;;;;21.00;12.55;;;10.10;99.90;;;;;;5025812;28;20050;-75
2023/04/07 01:31:25;;;;;;;20.90;11.90;;;10.00;99.90;;;;;;5047971;28;20036;-75
2023/04/07 01:33:51;;;;;;;19.35;11.68;;;10.00;99.90;;;;;;5030584;28;20549;-75
2023/04/07 01:36:18;;;;;;;24.30;12.80;;;10.00;99.90;;;;;;5043878;28;20017;-75
2023/04/07 01:38:44;;;;;;;21.48;11.95;;;10.00;99.90;;;;;;5029785;28;20037;-75
2023/04/07 01:41:13;;;;;;;20.40;12.75;;;9.90;99.90;;;;;;5030797;28;20028;-75
2023/04/07 01:43:40;;;;;;;21.33;13.50;;;9.90;99.90;;;;;;5037852;28;20090;-75
2023/04/07 01:46:05;;;;;;;16.80;11.85;;;9.90;99.90;;;;;;5049941;28;20072;-75
2023/04/07 01:48:33;;;;;;;18.05;13.50;;;9.90;99.90;;;;;;5048837;28;20032;-75
2023/04/07 01:50:59;;;;;;;16.40;12.25;;;9.90;99.90;;;;;;5048606;28;20031;-75
2023/04/07 01:53:26;;;;;;;19.83;13.35;;;9.90;99.90;;;;;;5038997;28;20094;-75
2023/04/07 01:55:53;;;;;;;22.25;12.65;;;9.90;99.90;;;;;;5049597;28;20024;-75
2023/04/07 01:58:18;;;;;;;22.15;11.95;;;9.90;99.90;;;;;;5049709;28;20029;-75
2023/04/07 02:00:44;;;;;;;17.60;12.75;;;9.80;99.90;;;;;;5049443;28;20070;-75
2023/04/07 02:03:21;;;;;;;19.45;12.45;;;9.90;99.90;;;;;;5050926;28;20041;-75
2023/04/07 02:05:51;;;;;;;21.17;13.57;;;9.90;99.90;;;;;;5048868;28;20028;-75
2023/04/07 02:08:18;;;;;;;20.45;12.65;;;9.80;99.90;;;;;;5049614;28;20025;-75
2023/04/07 02:10:47;;;;;;;21.88;15.18;;;9.80;99.90;;;;;;5048562;28;20025;-75
2023/04/07 02:13:17;;;;;;;25.48;13.68;;;9.80;99.90;;;;;;5042894;28;20034;-75
2023/04/07 02:15:44;;;;;;;23.15;15.55;;;9.80;99.90;;;;;;5048251;28;20028;-76
2023/04/07 02:18:13;;;;;;;22.88;14.20;;;9.70;99.90;;;;;;5049643;28;20028;-75
2023/04/07 02:20:40;;;;;;;20.67;14.13;;;9.70;99.90;;;;;;5048459;28;20039;-75
2023/04/07 02:23:07;;;;;;;21.52;13.63;;;9.70;99.90;;;;;;5049847;28;20378;-75
2023/04/07 02:25:33;;;;;;;24.67;13.77;;;9.70;99.90;;;;;;5046887;28;20474;-76
2023/04/07 02:28:00;;;;;;;22.60;14.23;;;9.70;99.90;;;;;;5042782;28;20087;-76
2023/04/07 02:30:26;;;;;;;19.25;13.55;;;9.70;99.90;;;;;;5049015;28;20021;-75
2023/04/07 02:32:52;;;;;;;19.17;13.73;;;9.70;99.90;;;;;;5036681;28;20053;-75
2023/04/07 02:35:18;;;;;;;23.90;13.82;;;9.70;99.90;;;;;;5049296;28;20021;-75
2023/04/07 02:37:45;;;;;;;23.83;14.65;;;9.70;99.90;;;;;;5049497;28;20087;-76
2023/04/07 02:40:11;;;;;;;20.67;13.57;;;9.70;99.90;;;;;;5048510;28;20025;-75
2023/04/07 02:42:36;;;;;;;27.10;14.82;;;9.70;99.90;;;;;;5037880;28;20025;-76
2023/04/07 02:45:04;;;;;;;22.17;15.50;;;9.70;99.90;;;;;;5036737;28;20036;-75
2023/04/07 02:47:29;;;;;;;20.20;14.60;;;9.70;99.90;;;;;;5049678;28;20025;-76
2023/04/07 02:49:55;;;;;;;25.10;14.40;;;9.70;99.90;;;;;;5051172;28;20474;-76
2023/04/07 02:52:20;;;;;;;24.77;14.45;;;9.70;99.90;;;;;;5053399;28;20478;-75
2023/04/07 02:54:46;;;;;;;23.23;14.75;;;9.70;99.90;;;;;;5052848;28;20057;-75
2023/04/07 02:57:12;;;;;;;23.65;15.48;;;9.70;99.90;;;;;;5052824;28;20104;-75
2023/04/07 02:59:38;;;;;;;33.80;16.95;;;9.70;99.90;;;;;;5051864;28;20112;-75
2023/04/07 03:02:04;;;;;;;24.60;16.40;;;9.70;99.90;;;;;;5053279;28;20124;-75
2023/04/07 03:04:30;;;;;;;25.08;15.68;;;9.70;99.90;;;;;;5049648;28;20109;-75
2023/04/07 03:06:56;;;;;;;27.63;16.35;;;9.70;99.90;;;;;;5046492;28;20013;-75
2023/04/07 03:09:22;;;;;;;24.90;16.95;;;9.70;99.90;;;;;;5051083;28;20025;-76
2023/04/07 03:11:47;;;;;;;33.47;19.90;;;9.70;99.90;;;;;;5052535;28;20029;-76
2023/04/07 03:14:13;;;;;;;29.33;16.95;;;9.70;99.90;;;;;;5052603;28;20354;-75
2023/04/07 03:16:38;;;;;;;28.23;18.45;;;9.70;99.90;;;;;;5040108;28;20489;-76
2023/04/07 03:19:04;;;;;;;30.45;18.13;;;9.70;99.90;;;;;;5033315;28;20029;-75
2023/04/07 03:21:30;;;;;;;32.28;17.90;;;9.70;99.90;;;;;;5044826;28;20029;-75
2023/04/07 03:23:56;;;;;;;30.58;19.40;;;9.70;99.90;;;;;;5044505;28;20022;-75
2023/04/07 03:26:22;;;;;;;31.63;17.73;;;9.80;99.90;;;;;;5031695;28;20052;-75
2023/04/07 03:28:47;;;;;;;28.67;18.42;;;9.80;99.90;;;;;;5032636;28;20486;-75
2023/04/07 03:31:13;;;;;;;29.80;18.15;;;9.80;99.90;;;;;;5045894;28;20103;-75
2023/04/07 03:33:38;;;;;;;29.17;19.13;;;9.80;99.90;;;;;;5051818;28;20021;-75
2023/04/07 03:36:05;;;;;;;27.25;17.88;;;9.80;99.90;;;;;;5052431;28;20032;-75
2023/04/07 03:38:31;;;;;;;34.70;19.50;;;9.80;99.90;;;;;;5050326;28;20029;-75
2023/04/07 03:40:56;;;;;;;26.30;17.70;;;9.80;99.90;;;;;;5051655;28;20493;-76
2023/04/07 03:43:22;;;;;;;29.02;17.90;;;9.80;99.90;;;;;;5051860;28;20043;-75
2023/04/07 03:45:47;;;;;;;34.05;17.83;;;9.80;99.90;;;;;;5052057;28;20021;-75
2023/04/07 03:48:13;;;;;;;31.08;17.65;;;9.80;99.90;;;;;;5051639;28;20025;-75
2023/04/07 03:50:39;;;;;;;27.75;16.40;;;9.80;99.90;;;;;;5051618;28;20448;-75
2023/04/07 03:53:04;;;;;;;30.02;19.45;;;9.80;99.90;;;;;;5052056;28;20485;-75
2023/04/07 03:55:30;;;;;;;32.30;18.50;;;9.80;99.90;;;;;;5037685;28;20083;-75
2023/04/07 03:57:56;;;;;;;27.85;18.35;;;9.70;99.90;;;;;;5031144;28;20068;-75
2023/04/07 04:00:22;;;;;;;29.55;18.55;;;9.70;99.90;;;;;;5031827;28;20041;-76
2023/04/07 04:02:47;;;;;;;25.67;15.55;;;9.80;99.90;;;;;;5031832;28;20030;-75
2023/04/07 04:05:13;;;;;;;27.33;16.23;;;9.70;99.90;;;;;;5032489;28;20029;-75
2023/04/07 04:07:39;;;;;;;31.50;19.52;;;9.80;99.90;;;;;;5049550;28;20524;-75
2023/04/07 04:10:05;;;;;;;31.08;19.00;;;9.80;99.90;;;;;;5049020;28;20047;-75
2023/04/07 04:12:32;;;;;;;32.10;19.05;;;9.80;99.90;;;;;;5047288;28;20027;-75
2023/04/07 04:14:57;;;;;;;30.00;19.02;;;9.80;99.90;;;;;;5048518;28;20056;-75
2023/04/07 04:17:24;;;;;;;30.15;18.33;;;9.70;99.90;;;;;;5048235;28;20048;-76
2023/04/07 04:19:50;;;;;;;30.77;17.13;;;9.80;99.90;;;;;;5038982;28;20025;-75
2023/04/07 04:22:16;;;;;;;32.08;17.30;;;9.80;99.90;;;;;;5044024;28;20036;-75
2023/04/07 04:24:41;;;;;;;28.30;17.00;;;9.80;99.90;;;;;;5031438;28;20096;-75
2023/04/07 04:27:07;;;;;;;31.98;16.95;;;9.80;99.90;;;;;;5032795;28;20132;-75
2023/04/07 04:29:32;;;;;;;33.85;18.02;;;9.90;99.90;;;;;;5032194;28;20044;-75
2023/04/07 04:31:58;;;;;;;25.80;16.17;;;9.90;99.90;;;;;;5050735;28;20497;-75
2023/04/07 04:34:24;;;;;;;26.77;16.35;;;9.90;99.90;;;;;;5051613;28;20021;-75
2023/04/07 04:36:49;;;;;;;34.85;18.38;;;9.90;99.90;;;;;;5034202;28;20030;-75
2023/04/07 04:39:15;;;;;;;31.13;17.90;;;9.90;99.90;;;;;;5033536;28;20462;-75
2023/04/07 04:41:41;;;;;;;34.63;18.20;;;9.80;99.90;;;;;;5036129;28;20387;-75
2023/04/07 04:44:06;;;;;;;40.55;18.05;;;9.80;99.90;;;;;;5034232;28;20097;-75
2023/04/07 04:46:32;;;;;;;36.17;17.52;;;9.80;99.90;;;;;;5036229;28;20089;-75
2023/04/07 04:48:57;;;;;;;34.13;17.00;;;9.80;99.90;;;;;;5032923;28;20159;-75
2023/04/07 04:51:23;;;;;;;29.58;15.25;;;9.80;99.90;;;;;;5036047;28;20030;-75
2023/04/07 04:53:49;;;;;;;34.22;16.77;;;9.80;99.90;;;;;;5033548;28;20049;-76
2023/04/07 04:56:15;;;;;;;30.42;16.00;;;9.80;99.90;;;;;;5036440;28;20056;-75
2023/04/07 04:58:44;;;;;;;37.95;15.98;;;9.80;99.90;;;;;;5033550;28;20021;-76
2023/04/07 05:01:11;;;;;;;30.23;17.30;;;9.80;99.90;;;;;;5035721;28;20010;-75
2023/04/07 05:03:36;;;;;;;24.83;14.50;;;9.80;99.90;;;;;;5033228;28;20064;-75
2023/04/07 05:06:02;;;;;;;26.23;15.17;;;9.80;99.90;;;;;;5035540;28;20030;-75
2023/04/07 05:08:27;;;;;;;30.20;17.20;;;9.80;99.90;;;;;;5033117;28;20035;-75
2023/04/07 05:10:54;;;;;;;36.78;16.33;;;9.80;99.90;;;;;;5034527;28;21313;-75
2023/04/07 05:13:19;;;;;;;38.17;18.10;;;9.80;99.90;;;;;;5031987;28;20453;-76
2023/04/07 05:15:45;;;;;;;36.72;18.30;;;9.80;99.90;;;;;;5035236;28;20071;-76
2023/04/07 05:18:11;;;;;;;32.38;17.55;;;9.80;99.90;;;;;;5031227;28;20147;-75
2023/04/07 05:20:36;;;;;;;29.52;15.77;;;9.80;99.90;;;;;;5034053;28;20059;-75
2023/04/07 05:23:02;;;;;;;32.05;16.55;;;9.80;99.90;;;;;;5033329;28;20080;-75
2023/04/07 05:25:28;;;;;;;36.33;15.05;;;9.80;99.90;;;;;;5036264;28;20021;-75
2023/04/07 05:27:53;;;;;;;26.33;15.05;;;9.80;99.90;;;;;;5032131;28;20036;-76
2023/04/07 05:30:19;;;;;;;31.00;15.82;;;9.80;99.90;;;;;;5037474;28;20091;-75
2023/04/07 05:32:44;;;;;;;24.70;14.90;;;9.80;99.90;;;;;;5037067;28;20028;-75
2023/04/07 05:35:10;;;;;;;30.25;14.52;;;9.80;99.90;;;;;;5030816;28;20434;-75
2023/04/07 05:37:36;;;;;;;31.10;15.45;;;9.80;99.90;;;;;;5030139;28;20037;-75
2023/04/07 05:40:01;;;;;;;26.40;14.55;;;9.90;99.90;;;;;;5031601;28;20026;-75
2023/04/07 05:42:27;;;;;;;32.08;14.63;;;9.80;99.90;;;;;;5029454;28;20025;-75
2023/04/07 05:44:52;;;;;;;26.30;15.52;;;9.90;99.90;;;;;;5030949;28;20057;-75
2023/04/07 05:47:18;;;;;;;28.97;14.97;;;9.90;99.90;;;;;;5030664;28;20018;-75
2023/04/07 05:49:46;;;;;;;29.10;16.17;;;9.90;99.90;;;;;;5035294;28;20025;-75
2023/04/07 05:52:13;;;;;;;33.00;16.40;;;9.90;99.90;;;;;;5050597;28;20032;-75
2023/04/07 05:54:39;;;;;;;31.63;16.20;;;9.80;99.90;;;;;;5049277;28;20099;-76
2023/04/07 05:57:06;;;;;;;29.77;16.73;;;9.90;99.90;;;;;;5038202;28;20124;-75
2023/04/07 05:59:31;;;;;;;24.70;15.70;;;9.90;99.90;;;;;;5030706;28;20107;-75
2023/04/07 06:01:57;;;;;;;24.90;16.48;;;9.90;99.90;;;;;;5028939;28;20069;-75
2023/04/07 06:04:23;;;;;;;28.95;17.40;;;9.90;99.90;;;;;;5029934;28;20029;-75
2023/04/07 06:06:48;;;;;;;29.02;15.90;;;9.90;99.90;;;;;;5030494;28;20025;-75
2023/04/07 06:09:14;;;;;;;29.90;15.68;;;9.90;99.90;;;;;;5030703;28;20482;-75
2023/04/07 06:11:39;;;;;;;26.05;15.43;;;9.90;99.90;;;;;;5028689;28;20075;-75
2023/04/07 06:14:05;;;;;;;30.83;17.50;;;9.90;99.90;;;;;;5034497;28;20049;-75
2023/04/07 06:16:31;;;;;;;27.52;16.20;;;9.90;99.90;;;;;;5049864;28;20082;-75
2023/04/07 06:18:56;;;;;;;32.15;17.17;;;9.90;99.90;;;;;;5029046;28;20091;-75
2023/04/07 06:21:22;;;;;;;31.02;16.45;;;9.90;99.90;;;;;;5030774;28;20466;-76
2023/04/07 06:23:47;;;;;;;26.02;16.15;;;9.90;99.90;;;;;;5049387;28;20017;-75
2023/04/07 06:26:13;;;;;;;30.15;17.10;;;9.90;99.90;;;;;;5055248;28;20028;-75
2023/04/07 06:28:39;;;;;;;29.35;16.73;;;10.00;99.90;;;;;;5055489;28;20052;-75
2023/04/07 06:31:05;;;;;;;33.73;17.67;;;9.90;99.90;;;;;;5056063;28;20025;-75
2023/04/07 06:33:30;;;;;;;29.05;16.67;;;9.90;99.90;;;;;;5055541;28;20152;-75
2023/04/07 06:35:56;;;;;;;31.25;15.88;;;10.00;99.90;;;;;;5053791;28;20386;-78
2023/04/07 06:38:22;;;;;;;31.58;16.55;;;9.90;99.90;;;;;;5052070;28;20504;-73
2023/04/07 06:40:47;;;;;;;30.30;15.32;;;10.00;99.90;;;;;;5053820;28;20094;-73
2023/04/07 06:43:13;;;;;;;30.45;17.10;;;10.00;99.90;;;;;;5049291;28;20108;-72
2023/04/07 06:45:38;;;;;;;32.30;16.23;;;10.00;99.90;;;;;;5025991;28;20025;-72
2023/04/07 06:48:04;;;;;;;29.63;15.15;;;10.00;99.90;;;;;;5046764;28;20036;-72
2023/04/07 06:50:30;;;;;;;24.10;14.63;;;10.00;99.90;;;;;;5042748;28;20022;-73
2023/04/07 06:52:55;;;;;;;28.58;15.75;;;10.00;99.90;;;;;;5048134;28;20489;-73
2023/04/07 06:55:21;;;;;;;24.10;13.82;;;10.10;99.90;;;;;;5047121;28;20057;-73
2023/04/07 06:57:46;;;;;;;17.77;11.90;;;10.10;99.90;;;;;;5046173;28;20116;-73
2023/04/07 07:00:13;;;;;;;16.38;10.85;;;10.10;99.90;;;;;;5044625;28;20049;-73
2023/04/07 07:02:39;;;;;;;11.18;9.80;;;10.10;99.90;;;;;;5047137;28;20041;-73
2023/04/07 07:05:05;;;;;;;17.83;8.50;;;10.10;99.90;;;;;;5040889;28;20394;-74
2023/04/07 07:07:31;;;;;;;14.63;8.73;;;10.10;99.90;;;;;;5047858;28;20017;-71
2023/04/07 07:09:56;;;;;;;11.73;7.32;;;10.10;99.90;;;;;;5047463;28;20025;-71
2023/04/07 07:12:23;;;;;;;12.23;8.27;;;10.20;99.90;;;;;;5047893;28;20045;-71
2023/04/07 07:14:48;;;;;;;15.57;8.10;;;10.20;99.90;;;;;;5047337;28;20825;-74
2023/04/07 07:17:14;;;;;;;12.32;7.85;;;10.30;99.90;;;;;;5046175;28;20529;-73
2023/04/07 07:19:40;;;;;;;15.88;8.73;;;10.30;99.90;;;;;;5046420;28;20112;-73
2023/04/07 07:22:05;;;;;;;14.02;7.57;;;10.40;99.90;;;;;;5036809;28;20500;-73
2023/04/07 07:24:32;;;;;;;13.88;8.38;;;10.50;99.90;;;;;;5040360;28;20021;-74
2023/04/07 07:26:59;;;;;;;16.65;8.45;;;10.50;99.90;;;;;;5042347;28;20047;-73
2023/04/07 07:29:24;;;;;;;17.08;8.15;;;10.50;99.90;;;;;;5043967;28;20095;-73
2023/04/07 07:31:50;;;;;;;14.40;9.40;;;10.60;99.90;;;;;;5052296;28;20462;-73
2023/04/07 07:34:15;;;;;;;10.40;8.27;;;10.60;99.90;;;;;;5055620;28;20477;-73
2023/04/07 07:36:41;;;;;;;11.00;7.93;;;10.70;99.90;;;;;;5051144;28;20021;-73
2023/04/07 07:39:07;;;;;;;16.08;7.82;;;10.80;99.90;;;;;;5051302;28;20021;-73
2023/04/07 07:41:32;;;;;;;9.93;7.45;;;10.90;99.90;;;;;;5039972;28;20044;-73
2023/04/07 07:43:58;;;;;;;13.68;8.15;;;10.90;99.90;;;;;;5036276;28;20029;-73
2023/04/07 07:46:24;;;;;;;14.70;6.90;;;10.90;99.90;;;;;;5042757;28;20028;-72
2023/04/07 07:48:50;;;;;;;10.70;6.20;;;10.80;99.90;;;;;;5034490;28;20073;-74
2023/04/07 07:51:17;;;;;;;11.82;6.07;;;10.90;99.90;;;;;;5042804;28;20469;-74
2023/04/07 07:53:46;;;;;;;13.70;6.45;;;10.90;99.90;;;;;;5048962;28;20025;-75
2023/04/07 07:56:11;;;;;;;10.93;5.93;;;10.90;99.90;;;;;;5043335;28;20029;-74
2023/04/07 07:58:37;;;;;;;13.35;7.28;;;10.90;99.90;;;;;;5047943;28;20281;-74
2023/04/07 08:01:03;;;;;;;12.02;7.43;;;11.00;99.90;;;;;;5044431;28;20108;-74
2023/04/07 08:03:28;;;;;;;13.43;7.22;;;11.00;99.90;;;;;;5048151;28;20041;-74
2023/04/07 08:05:54;;;;;;;13.82;7.47;;;11.00;99.90;;;;;;5046655;28;20044;-74
2023/04/07 08:08:19;;;;;;;9.95;6.88;;;10.90;99.90;;;;;;5069951;28;20120;-74
2023/04/07 08:10:45;;;;;;;10.90;7.35;;;11.00;99.90;;;;;;5048780;28;20497;-74
2023/04/07 08:13:10;;;;;;;15.43;8.30;;;11.00;99.90;;;;;;5050754;28;20040;-74
2023/04/07 08:15:36;;;;;;;11.98;7.93;;;11.00;99.90;;;;;;5048339;28;20025;-75
2023/04/07 08:18:03;;;;;;;7.57;6.80;;;11.00;99.90;;;;;;5051366;28;20438;-74
2023/04/07 08:20:30;;;;;;;13.75;7.70;;;11.10;99.90;;;;;;5042335;28;20020;-75
2023/04/07 08:22:56;;;;;;;13.05;7.80;;;11.10;99.90;;;;;;5039112;28;20490;-75
2023/04/07 08:25:21;;;;;;;10.48;7.15;;;11.10;99.90;;;;;;5049657;28;20025;-75
2023/04/07 08:27:47;;;;;;;10.80;7.68;;;11.10;99.90;;;;;;5050648;28;20482;-75
2023/04/07 08:30:13;;;;;;;15.02;7.82;;;11.10;99.90;;;;;;5045987;28;20095;-75
2023/04/07 08:32:41;;;;;;;12.52;6.93;;;11.10;99.90;;;;;;5033920;28;20479;-74
2023/04/07 08:35:07;;;;;;;11.93;6.57;;;11.10;99.90;;;;;;5033675;28;20029;-74
2023/04/07 08:37:33;;;;;;;10.82;5.97;;;11.10;99.90;;;;;;5036312;28;20049;-75
2023/04/07 08:39:59;;;;;;;11.80;6.32;;;11.20;99.90;;;;;;5044636;28;20036;-73
2023/04/07 08:42:28;;;;;;;8.90;6.72;;;11.30;99.90;;;;;;5048317;28;20017;-73
2023/04/07 08:44:57;;;;;;;9.73;6.78;;;11.30;99.90;;;;;;5046585;28;20021;-74
2023/04/07 08:47:26;;;;;;;13.40;8.15;;;11.40;99.90;;;;;;5045731;28;20029;-73
2023/04/07 08:49:55;;;;;;;14.38;9.68;;;11.40;99.90;;;;;;5047722;28;20500;-74
2023/04/07 08:52:27;;;;;;;18.75;9.15;;;11.40;99.90;;;;;;5046273;28;20549;-73
2023/04/07 08:54:54;;;;;;;15.02;10.20;;;11.40;99.90;;;;;;5037128;28;20375;-73
2023/04/07 08:57:20;;;;;;;16.38;9.88;;;11.40;99.90;;;;;;5043807;28;20490;-73
2023/04/07 08:59:47;;;;;;;18.35;10.55;;;11.30;99.90;;;;;;5047848;28;20029;-74
2023/04/07 09:02:14;;;;;;;13.18;9.80;;;11.40;99.90;;;;;;5045722;28;20449;-74
2023/04/07 09:04:41;;;;;;;19.63;10.38;;;11.30;99.90;;;;;;5049205;28;20071;-75
2023/04/07 09:07:07;;;;;;;18.50;10.15;;;11.30;99.90;;;;;;5045550;28;20013;-74
2023/04/07 09:09:32;;;;;;;15.57;10.32;;;11.20;99.90;;;;;;5038451;28;20029;-75
2023/04/07 09:11:58;;;;;;;15.52;9.98;;;11.20;99.90;;;;;;5045254;28;20059;-74
2023/04/07 09:14:24;;;;;;;16.55;8.75;;;11.20;99.90;;;;;;5047656;28;20037;-74
2023/04/07 09:16:49;;;;;;;17.35;10.38;;;11.20;99.90;;;;;;5045347;28;20029;-74
2023/04/07 09:19:15;;;;;;;15.40;9.10;;;11.20;99.90;;;;;;5048694;28;20041;-73
2023/04/07 09:21:51;;;;;;;14.30;8.02;;;11.20;99.90;;;;;;5045861;28;20025;-74
2023/04/07 09:24:25;;;;;;;14.93;9.82;;;11.10;99.90;;;;;;5048294;28;20036;-74
2023/04/07 09:27:09;;;;;;;12.95;8.60;;;11.20;99.90;;;;;;5045790;28;20009;-74
2023/04/07 09:29:34;;;;;;;13.63;7.45;;;11.20;99.90;;;;;;5045454;28;20029;-74
2023/04/07 09:32:00;;;;;;;13.93;8.30;;;11.30;99.90;;;;;;5049892;28;20390;-74
2023/04/07 09:34:27;;;;;;;11.77;7.68;;;11.30;99.90;;;;;;5050165;28;20032;-73
2023/04/07 09:36:53;;;;;;;15.23;7.88;;;11.40;99.90;;;;;;5047788;28;20029;-74
2023/04/07 09:39:19;;;;;;;13.68;7.45;;;11.40;99.90;;;;;;5045620;28;20029;-74
2023/04/07 09:41:46;;;;;;;11.45;7.72;;;11.40;99.90;;;;;;5048739;28;20025;-74
2023/04/07 09:44:12;;;;;;;12.73;7.30;;;11.50;99.90;;;;;;5047953;28;20131;-73
2023/04/07 09:46:55;;;;;;;14.55;8.02;;;11.60;99.90;;;;;;5047873;28;20027;-74
2023/04/07 09:49:21;;;;;;;11.48;7.70;;;11.80;99.90;;;;;;5048065;28;20025;-74
2023/04/07 09:52:03;;;;;;;13.40;7.15;;;11.70;99.90;;;;;;5041359;28;20029;-75
2023/04/07 09:54:38;;;;;;;9.65;6.32;;;11.80;99.90;;;;;;5040261;28;20025;-73
2023/04/07 09:57:09;;;;;;;13.80;7.47;;;11.80;99.90;;;;;;5037400;28;20500;-73
2023/04/07 09:59:38;;;;;;;11.63;7.10;;;11.80;99.90;;;;;;5039484;28;20378;-74
2023/04/07 10:02:04;;;;;;;10.18;6.30;;;11.80;99.90;;;;;;5034466;28;20046;-73
2023/04/07 10:04:30;;;;;;;13.95;6.95;;;11.80;99.90;;;;;;5037237;28;20058;-74
2023/04/07 10:06:58;;;;;;;11.40;6.78;;;11.90;99.90;;;;;;5041241;28;20421;-74
2023/04/07 10:09:25;;;;;;;10.82;6.85;;;11.80;99.90;;;;;;5045520;28;20066;-74
2023/04/07 10:11:52;;;;;;;11.55;6.65;;;11.80;99.90;;;;;;5040993;28;20075;-74
2023/04/07 10:14:20;;;;;;;10.07;6.28;;;11.70;99.90;;;;;;5045320;28;20074;-74
2023/04/07 10:16:46;;;;;;;15.98;7.55;;;11.60;99.90;;;;;;5041966;28;20017;-73
2023/04/07 10:19:13;;;;;;;11.57;6.22;;;11.50;99.90;;;;;;5046324;28;20029;-73
2023/04/07 10:21:41;;;;;;;14.13;6.85;;;11.50;99.90;;;;;;5041793;28;20068;-73
2023/04/07 10:24:32;;;;;;;14.10;6.47;;;11.40;99.90;;;;;;5046363;28;20021;-74
2023/04/07 10:27:02;;;;;;;10.05;5.70;;;11.40;99.90;;;;;;5075139;28;20028;-74
2023/04/07 10:29:34;;;;;;;8.93;6.57;;;11.30;99.90;;;;;;5043769;28;20025;-74
2023/04/07 10:32:01;;;;;;;10.25;5.25;;;11.30;99.90;;;;;;5043253;28;20483;-73
2023/04/07 10:34:54;;;;;;;15.68;6.25;;;11.40;99.90;;;;;;5029791;28;20487;-73
2023/04/07 10:37:21;;;;;;;8.48;5.88;;;11.50;99.90;;;;;;5019491;28;20056;-73
2023/04/07 10:40:10;;;;;;;19.90;5.80;;;11.40;99.90;;;;;;5042331;28;20057;-73
2023/04/07 10:42:39;;;;;;;8.52;4.60;;;11.60;99.90;;;;;;5029439;28;20393;-73
2023/04/07 10:45:07;;;;;;;11.65;5.75;;;11.70;99.90;;;;;;5017845;28;20014;-73
2023/04/07 10:47:52;;;;;;;8.60;4.38;;;11.70;99.90;;;;;;5029538;28;20026;-74
2023/04/07 10:50:22;;;;;;;11.60;5.00;;;11.70;99.90;;;;;;5029573;28;20033;-74
2023/04/07 10:53:03;;;;;;;6.30;4.60;;;11.80;99.90;;;;;;5029643;28;20052;-75
2023/04/07 10:55:36;;;;;;;8.63;4.57;;;11.80;99.90;;;;;;5029354;28;20072;-74
2023/04/07 10:58:14;;;;;;;6.80;4.65;;;11.90;99.90;;;;;;5028551;28;20044;-73
2023/04/07 11:00:40;;;;;;;11.90;6.35;;;11.90;99.90;;;;;;5040110;28;20021;-73
2023/04/07 11:03:12;;;;;;;9.23;5.25;;;11.90;99.90;;;;;;5049215;28;20448;-73
2023/04/07 11:05:42;;;;;;;9.50;5.10;;;11.90;99.90;;;;;;5040937;28;20128;-73
2023/04/07 11:08:07;;;;;;;8.98;5.00;;;11.80;99.90;;;;;;5046410;28;20029;-74
2023/04/07 11:10:34;;;;;;;6.50;5.50;;;11.80;99.90;;;;;;5030659;28;20029;-73
2023/04/07 11:13:05;;;;;;;6.15;5.55;;;11.80;99.90;;;;;;5033400;28;20520;-73
2023/04/07 11:15:32;;;;;;;11.57;6.53;;;11.80;99.90;;;;;;5032343;28;20026;-74
2023/04/07 11:18:16;;;;;;;9.77;5.70;;;11.70;99.90;;;;;;5036973;28;20048;-74
2023/04/07 11:20:51;;;;;;;12.13;6.10;;;11.80;99.90;;;;;;5036257;28;20018;-74
2023/04/07 11:23:19;;;;;;;7.80;5.47;;;11.70;99.90;;;;;;5032574;28;20433;-74
2023/04/07 11:25:47;;;;;;;7.90;6.40;;;11.70;99.90;;;;;;5032872;28;20018;-75
2023/04/07 11:28:13;;;;;;;13.27;6.05;;;11.70;99.90;;;;;;5033473;28;20494;-74
2023/04/07 11:30:51;;;;;;;13.73;6.10;;;11.80;99.90;;;;;;5035645;28;20032;-74
2023/04/07 11:33:37;;;;;;;11.90;6.05;;;11.80;99.90;;;;;;5032962;28;20075;-74
2023/04/07 11:36:03;;;;;;;10.00;6.20;;;11.70;99.90;;;;;;5020289;28;20029;-74
2023/04/07 11:38:34;;;;;;;10.98;5.68;;;11.70;99.90;;;;;;5034112;28;20060;-74
2023/04/07 11:41:10;;;;;;;10.82;6.30;;;11.60;99.90;;;;;;5038116;28;20486;-74
2023/04/07 11:43:36;;;;;;;11.07;6.40;;;11.60;99.90;;;;;;5049522;28;20084;-74
2023/04/07 11:46:03;;;;;;;12.75;5.97;;;11.50;99.90;;;;;;5036024;28;20501;-74
2023/04/07 11:48:30;;;;;;;10.40;6.30;;;11.50;99.90;;;;;;5036839;28;20040;-74
2023/04/07 11:50:56;;;;;;;10.27;5.90;;;11.40;99.90;;;;;;5038335;28;20121;-73
2023/04/07 11:53:38;;;;;;;8.55;5.20;;;11.40;99.90;;;;;;5041103;28;20061;-74
2023/04/07 11:56:17;;;;;;;12.20;7.00;;;11.40;99.90;;;;;;5033205;28;20033;-72
2023/04/07 11:58:49;;;;;;;12.88;6.43;;;11.40;99.90;;;;;;5033287;28;20029;-73
2023/04/07 12:01:15;;;;;;;10.77;6.35;;;11.40;99.90;;;;;;5041684;28;20096;-73
2023/04/07 12:04:02;;;;;;;10.98;6.18;;;11.40;99.90;;;;;;5048463;28;20502;-72
2023/04/07 12:06:37;;;;;;;20.42;7.90;;;11.40;99.90;;;;;;5043723;28;20055;-72
2023/04/07 12:09:04;;;;;;;14.93;6.75;;;11.50;99.90;;;;;;5046469;28;20141;-72
2023/04/07 12:11:30;;;;;;;11.60;7.43;;;11.60;99.90;;;;;;5045434;28;20099;-73
2023/04/07 12:13:56;;;;;;;9.85;6.82;;;11.70;99.90;;;;;;5040851;28;20021;-72
2023/04/07 12:16:23;;;;;;;10.48;6.35;;;11.70;99.90;;;;;;5037947;28;20017;-72
2023/04/07 12:18:50;;;;;;;10.85;7.43;;;11.70;99.90;;;;;;5034494;28;20382;-72
2023/04/07 12:21:16;;;;;;;12.93;7.10;;;11.70;99.90;;;;;;5043618;28;20413;-73
2023/04/07 12:23:42;;;;;;;13.07;7.82;;;11.70;99.90;;;;;;5033725;28;20068;-73
2023/04/07 12:26:08;;;;;;;15.77;8.43;;;11.70;99.90;;;;;;5035790;28;20030;-73
2023/04/07 12:28:33;;;;;;;12.05;7.93;;;11.70;99.90;;;;;;5033018;28;20148;-74
2023/04/07 12:30:59;;;;;;;8.57;7.00;;;11.80;99.90;;;;;;5041063;28;20044;-73
2023/04/07 12:33:24;;;;;;;13.27;7.53;;;11.80;99.90;;;;;;5036825;28;20033;-73
2023/04/07 12:35:50;;;;;;;10.48;6.70;;;11.80;99.90;;;;;;5022047;28;20386;-73
2023/04/07 12:38:16;;;;;;;13.95;6.43;;;11.90;99.90;;;;;;5045871;28;20025;-74